createdAt,value
2019-04-07T00:01:51.859Z,99109.39
2019-04-07T00:06:54.462Z,99107.45
2019-04-07T00:11:56.587Z,99100.88
2019-04-07T00:16:58.605Z,99109.14
2019-04-07T00:22:00.869Z,99101.98
2019-04-07T00:27:03.543Z,99107.55
2019-04-07T00:32:06.363Z,99109.52
2019-04-07T00:37:08.407Z,99107.45
2019-04-07T00:42:10.502Z,99111.94
2019-04-07T00:47:13.042Z,99120.66
2019-04-07T00:52:16.187Z,99111.56
2019-04-07T00:57:18.303Z,99113.38
2019-04-07T01:02:21.254Z,99115.33
2019-04-07T01:07:23.423Z,99113.38
2019-04-07T01:12:25.680Z,99119.77
2019-04-07T01:17:27.929Z,99121.00
2019-04-07T01:22:30.030Z,99127.39
2019-04-07T01:27:32.074Z,99126.68
2019-04-07T01:32:34.617Z,99124.60
2019-04-07T01:37:36.839Z,99125.44
2019-04-07T01:43:04.286Z,99119.88
2019-04-07T01:48:14.889Z,99115.91
2019-04-07T01:53:44.670Z,99118.09
2019-04-07T01:58:56.290Z,99121.98
2019-04-07T02:04:16.088Z,99127.54
2019-04-07T02:09:24.824Z,99125.94
2019-04-07T02:14:45.587Z,99130.27
2019-04-07T02:20:16.774Z,99132.92
2019-04-07T02:25:27.223Z,99133.97
2019-04-07T02:30:48.070Z,99124.41
2019-04-07T02:36:21.341Z,99129.24
2019-04-07T02:41:48.667Z,99126.70
2019-04-07T02:47:09.857Z,99127.20
2019-04-07T02:52:37.530Z,99133.45
2019-04-07T02:57:54.764Z,99125.64
2019-04-07T03:03:24.852Z,99132.20
2019-04-07T03:08:40.388Z,99137.61
2019-04-07T03:14:14.316Z,99142.06
2019-04-07T03:19:25.578Z,99139.10
2019-04-07T03:24:48.480Z,99146.73
2019-04-07T03:30:09.473Z,99149.39
2019-04-07T03:35:19.779Z,99148.52
2019-04-07T03:40:30.963Z,99146.09
2019-04-07T03:45:38.912Z,99150.89
2019-04-07T03:50:54.783Z,99149.70
2019-04-07T03:56:04.362Z,99149.56
2019-04-07T04:01:33.160Z,99154.19
2019-04-07T04:06:54.726Z,99153.41
2019-04-07T04:12:12.599Z,99160.88
2019-04-07T04:17:14.698Z,99159.70
2019-04-07T04:22:16.804Z,99155.19
2019-04-07T04:27:18.883Z,99153.34
2019-04-07T04:32:21.969Z,99157.49
2019-04-07T04:37:37.627Z,99158.19
2019-04-07T04:42:29.053Z,99161.27
2019-04-07T04:47:31.531Z,99167.19
2019-04-07T04:52:33.576Z,99160.87
2019-04-07T04:57:35.575Z,99170.87
2019-04-07T05:02:38.253Z,99172.60
2019-04-07T05:07:49.895Z,99180.05
2019-04-07T05:12:44.601Z,99182.11
2019-04-07T05:17:47.131Z,99186.59
2019-04-07T05:22:49.325Z,99196.05
2019-04-07T05:27:51.406Z,99198.88
2019-04-07T05:32:53.520Z,99200.72
2019-04-07T05:38:02.668Z,99203.95
2019-04-07T05:42:59.901Z,99201.59
2019-04-07T05:48:02.044Z,99204.94
2019-04-07T05:53:04.240Z,99220.50
2019-04-07T05:58:08.353Z,99227.62
2019-04-07T06:03:11.197Z,99234.19
2019-04-07T06:08:26.864Z,99237.24
2019-04-07T06:13:17.651Z,99234.92
2019-04-07T06:18:19.760Z,99242.62
2019-04-07T06:23:23.309Z,99245.56
2019-04-07T06:28:26.644Z,99238.66
2019-04-07T06:33:29.848Z,99240.56
2019-04-07T06:38:34.938Z,99242.44
2019-04-07T06:43:38.366Z,99242.58
2019-04-07T06:49:00.410Z,99248.41
2019-04-07T06:54:24.536Z,99249.44
2019-04-07T06:59:49.063Z,99249.45
2019-04-07T07:05:08.543Z,99256.41
2019-04-07T07:10:42.963Z,99253.49
2019-04-07T07:16:17.433Z,99251.58
2019-04-07T07:21:39.623Z,99258.79
2019-04-07T07:26:41.878Z,99262.34
2019-04-07T07:31:43.922Z,99258.44
2019-04-07T07:36:46.680Z,99261.62
2019-04-07T07:41:51.849Z,99267.44
2019-04-07T07:46:53.940Z,99264.50
2019-04-07T07:51:56.067Z,99273.86
2019-04-07T07:56:58.137Z,99275.77
2019-04-07T08:02:01.388Z,99274.08
2019-04-07T08:07:03.418Z,99275.65
2019-04-07T08:12:06.173Z,99282.30
2019-04-07T08:17:08.546Z,99287.71
2019-04-07T08:22:11.591Z,99284.23
2019-04-07T08:27:13.965Z,99276.17
2019-04-07T08:32:16.539Z,99282.11
2019-04-07T08:37:19.070Z,99284.61
2019-04-07T08:42:21.178Z,99280.45
2019-04-07T08:47:23.488Z,99283.00
2019-04-07T08:52:26.007Z,99291.11
2019-04-07T08:57:30.529Z,99292.38
2019-04-07T09:02:32.287Z,99289.36
2019-04-07T09:07:35.020Z,99294.20
2019-04-07T09:12:37.130Z,99290.66
2019-04-07T09:17:47.446Z,99295.27
2019-04-07T09:22:57.013Z,99291.77
2019-04-07T09:28:21.186Z,99285.27
2019-04-07T09:33:33.700Z,99286.58
2019-04-07T09:38:57.014Z,99289.70
2019-04-07T09:44:19.905Z,99285.06
2019-04-07T09:49:30.002Z,99292.94
2019-04-07T09:54:54.420Z,99285.74
2019-04-07T10:00:23.215Z,99282.66
2019-04-07T10:05:43.828Z,99285.72
2019-04-07T10:11:04.276Z,99280.94
2019-04-07T10:16:25.934Z,99283.63
2019-04-07T10:21:50.931Z,99271.54
2019-04-07T10:27:04.137Z,99276.44
2019-04-07T10:32:26.858Z,99276.34
2019-04-07T10:37:51.315Z,99272.69
2019-04-07T10:43:00.734Z,99271.83
2019-04-07T10:48:34.703Z,99268.77
2019-04-07T10:53:56.216Z,99269.48
2019-04-07T10:59:24.068Z,99267.13
2019-04-07T11:04:48.436Z,99271.98
2019-04-07T11:10:09.687Z,99276.33
2019-04-07T11:15:30.580Z,99270.73
2019-04-07T11:20:47.258Z,99265.67
2019-04-07T11:26:18.324Z,99274.72
2019-04-07T11:31:38.546Z,99272.75
2019-04-07T11:36:59.488Z,99268.16
2019-04-07T11:42:20.348Z,99262.78
2019-04-07T11:47:41.683Z,99256.27
2019-04-07T11:52:52.864Z,99264.03
2019-04-07T11:58:17.723Z,99253.61
2019-04-07T12:03:52.602Z,99265.66
2019-04-07T12:09:20.606Z,99262.78
2019-04-07T12:14:43.028Z,99262.89
2019-04-07T12:20:00.147Z,99257.36
2019-04-07T12:25:40.293Z,99254.25
2019-04-07T12:31:20.020Z,99245.26
2019-04-07T12:36:40.905Z,99242.70
2019-04-07T12:42:05.192Z,99246.06
2019-04-07T12:47:25.682Z,99237.56
2019-04-07T12:52:36.715Z,99235.69
2019-04-07T12:58:02.063Z,99228.48
2019-04-07T13:03:39.285Z,99228.00
2019-04-07T13:08:51.928Z,99227.02
2019-04-07T13:14:23.256Z,99218.80
2019-04-07T13:19:46.726Z,99225.70
2019-04-07T13:25:07.794Z,99220.73
2019-04-07T13:30:28.754Z,99219.46
2019-04-07T13:35:48.970Z,99214.17
2019-04-07T13:41:18.612Z,99209.64
2019-04-07T13:46:36.189Z,99215.91
2019-04-07T13:57:30.715Z,99206.65
2019-04-07T14:02:58.926Z,99215.59
2019-04-07T14:08:19.929Z,99204.24
2019-04-07T14:13:33.786Z,99205.41
2019-04-07T14:18:54.359Z,99208.31
2019-04-07T14:24:34.275Z,99210.42
2019-04-07T14:29:58.479Z,99199.45
2019-04-07T14:35:19.481Z,99194.30
2019-04-07T14:40:33.461Z,99201.83
2019-04-07T14:45:51.495Z,99202.03
2019-04-07T14:51:29.466Z,99201.75
2019-04-07T14:57:00.991Z,99208.34
2019-04-07T15:02:04.159Z,99208.84
2019-04-07T15:07:34.700Z,99214.92
2019-04-07T15:12:44.283Z,99212.56
2019-04-07T15:17:46.553Z,99219.64
2019-04-07T15:22:49.475Z,99219.30
2019-04-07T15:27:52.741Z,99219.66
2019-04-07T15:32:58.603Z,99226.06
2019-04-07T15:37:59.621Z,99224.03
2019-04-07T15:43:04.736Z,99223.31
2019-04-07T15:48:05.612Z,99229.55
2019-04-07T15:53:07.650Z,99226.88
2019-04-07T15:58:10.567Z,99232.27
2019-04-07T16:03:15.256Z,99229.25
2019-04-07T16:08:18.066Z,99240.24
2019-04-07T16:13:20.358Z,99234.98
2019-04-07T16:18:23.179Z,99241.38
2019-04-07T16:23:26.193Z,99250.17
2019-04-07T16:28:28.472Z,99247.13
2019-04-07T16:33:33.980Z,99249.94
2019-04-07T16:38:35.323Z,99262.27
2019-04-07T16:43:37.973Z,99256.33
2019-04-07T16:48:40.380Z,99266.92
2019-04-07T16:53:43.326Z,99272.68
2019-04-07T16:58:46.393Z,99279.72
2019-04-07T17:03:48.815Z,99273.59
2019-04-07T17:08:52.227Z,99277.70
2019-04-07T17:13:55.826Z,99281.09
2019-04-07T17:18:58.757Z,99279.95
2019-04-07T17:24:01.343Z,99279.91
2019-04-07T17:29:04.377Z,99288.88
2019-04-07T17:34:09.757Z,99288.78
2019-04-07T17:39:36.925Z,99290.66
2019-04-07T17:45:10.284Z,99298.28
2019-04-07T17:50:31.680Z,99302.77
2019-04-07T17:55:52.753Z,99304.36
2019-04-07T18:01:09.637Z,99313.76
2019-04-07T18:06:19.684Z,99320.12
2019-04-07T18:11:40.198Z,99328.45
2019-04-07T18:17:08.609Z,99326.45
2019-04-07T18:22:23.374Z,99332.95
2019-04-07T18:27:48.678Z,99339.09
2019-04-07T18:33:22.786Z,99346.77
2019-04-07T18:38:46.851Z,99351.63
2019-04-07T18:44:08.402Z,99352.05
2019-04-07T18:49:37.642Z,99356.92
2019-04-07T18:55:11.558Z,99366.02
2019-04-07T19:00:43.442Z,99374.15
2019-04-07T19:06:23.693Z,99382.41
2019-04-07T19:11:41.610Z,99385.96
2019-04-07T19:16:57.364Z,99387.39
2019-04-07T19:22:08.922Z,99389.17
2019-04-07T19:27:40.572Z,99399.27
2019-04-07T19:33:05.905Z,99397.86
2019-04-07T19:38:30.663Z,99395.49
2019-04-07T19:43:45.802Z,99400.92
2019-04-07T19:49:07.868Z,99397.38
2019-04-07T19:54:29.744Z,99402.20
2019-04-07T19:59:54.967Z,99405.52
2019-04-07T20:05:19.818Z,99403.22
2019-04-07T20:10:33.745Z,99409.77
2019-04-07T20:15:45.136Z,99412.47
2019-04-07T20:21:15.891Z,99410.12
2019-04-07T20:26:36.989Z,99416.31
2019-04-07T20:31:53.712Z,99413.28
2019-04-07T20:37:12.883Z,99413.56
2019-04-07T20:42:27.000Z,99410.77
2019-04-07T20:47:40.986Z,99413.53
2019-04-07T20:52:53.465Z,99420.67
2019-04-07T20:58:22.043Z,99408.94
2019-04-07T21:03:38.535Z,99409.52
2019-04-07T21:08:47.538Z,99420.45
2019-04-07T21:14:07.825Z,99425.25
2019-04-07T21:19:29.482Z,99433.38
2019-04-07T21:24:49.698Z,99439.74
2019-04-07T21:30:12.927Z,99440.30
2019-04-07T21:35:36.905Z,99439.88
2019-04-07T21:41:08.205Z,99443.20
2019-04-07T21:46:22.413Z,99442.37
2019-04-07T21:51:46.624Z,99449.02
2019-04-07T21:57:17.264Z,99448.14
2019-04-07T22:02:40.615Z,99453.16
2019-04-07T22:08:03.689Z,99450.75
2019-04-07T22:13:06.596Z,99451.25
2019-04-07T22:18:08.994Z,99449.88
2019-04-07T22:23:12.563Z,99447.61
2019-04-07T22:28:14.989Z,99451.54
2019-04-07T22:33:17.930Z,99452.98
2019-04-07T22:38:23.090Z,99450.77
2019-04-07T22:43:24.942Z,99459.95
2019-04-07T22:48:28.187Z,99459.91
2019-04-07T22:53:31.503Z,99460.50
2019-04-07T22:58:33.769Z,99461.03
2019-04-07T23:03:35.884Z,99476.91
2019-04-07T23:08:37.900Z,99489.81
2019-04-07T23:13:39.979Z,99493.23
2019-04-07T23:18:42.409Z,99488.77
2019-04-07T23:23:44.638Z,99484.98
2019-04-07T23:28:47.222Z,99489.25
2019-04-07T23:33:50.188Z,99488.48
2019-04-07T23:38:52.279Z,99501.23
2019-04-07T23:43:54.286Z,99493.02
2019-04-07T23:48:56.303Z,99489.03
2019-04-07T23:54:09.372Z,99487.55
2019-04-07T23:59:11.938Z,99491.84
